createdAt,value
2018-04-10T00:00:02.978Z,14.6
2018-04-10T00:05:03.575Z,14.8
2018-04-10T00:10:03.387Z,14.8
2018-04-10T00:15:03.084Z,14.5
2018-04-10T00:20:02.758Z,14.5
2018-04-10T00:25:03.392Z,14.5
2018-04-10T00:30:03.437Z,14.5
2018-04-10T00:35:03.166Z,14.3
2018-04-10T00:40:02.837Z,14.3
2018-04-10T00:45:02.443Z,14.1
2018-04-10T00:50:02.987Z,14.1
2018-04-10T00:55:02.596Z,14.0
2018-04-10T01:00:03.200Z,14.0
2018-04-10T01:05:02.814Z,13.8
2018-04-10T01:10:02.519Z,13.8
2018-04-10T01:15:03.044Z,13.6
2018-04-10T01:20:02.548Z,13.8
2018-04-10T01:25:03.177Z,13.6
2018-04-10T01:30:02.760Z,13.5
2018-04-10T01:35:03.327Z,13.3
2018-04-10T01:40:02.963Z,13.5
2018-04-10T01:45:02.620Z,13.6
2018-04-10T01:50:03.248Z,13.6
2018-04-10T01:55:02.785Z,13.8
2018-04-10T02:00:03.391Z,13.8
2018-04-10T02:05:03.027Z,13.8
2018-04-10T02:15:03.160Z,13.8
2018-04-10T02:20:02.892Z,13.8
2018-04-10T02:25:02.436Z,13.6
2018-04-10T02:30:03.077Z,13.6
2018-04-10T02:35:02.842Z,13.6
2018-04-10T02:40:02.465Z,13.5
2018-04-10T02:45:03.096Z,13.5
2018-04-10T02:50:02.626Z,13.5
2018-04-10T02:55:03.257Z,13.3
2018-04-10T03:00:02.810Z,13.5
2018-04-10T03:05:03.354Z,13.3
2018-04-10T03:10:02.973Z,13.5
2018-04-10T03:15:02.552Z,13.3
2018-04-10T03:20:02.441Z,13.3
2018-04-10T03:25:03.240Z,13.3
2018-04-10T03:50:02.460Z,13.1
2018-04-10T03:55:03.025Z,13.1
2018-04-10T04:00:02.713Z,13.1
2018-04-10T04:05:03.327Z,12.8
2018-04-10T04:10:02.900Z,12.8
2018-04-10T04:15:02.594Z,12.8
2018-04-10T04:20:03.120Z,12.6
2018-04-10T04:25:02.682Z,12.8
2018-04-10T04:30:02.570Z,12.6
2018-04-10T04:35:03.153Z,12.6
2018-04-10T04:40:02.842Z,12.5
2018-04-10T04:45:02.485Z,12.6
2018-04-10T04:50:03.178Z,12.5
2018-04-10T04:55:02.769Z,12.6
2018-04-10T05:00:03.332Z,12.8
2018-04-10T05:05:02.890Z,12.8
2018-04-10T05:10:02.549Z,12.6
2018-04-10T05:15:03.130Z,12.6
2018-04-10T05:20:02.776Z,12.5
2018-04-10T05:25:02.435Z,12.3
2018-04-10T05:30:03.027Z,12.1
2018-04-10T05:35:02.598Z,12.1
2018-04-10T05:40:03.302Z,12.1
2018-04-10T05:45:02.950Z,12.1
2018-04-10T05:50:02.607Z,12.3
2018-04-10T05:55:03.223Z,12.3
2018-04-10T06:00:03.151Z,12.5
2018-04-10T06:05:02.848Z,12.8
2018-04-10T06:10:02.511Z,12.8
2018-04-10T06:15:03.124Z,12.8
2018-04-10T06:20:02.732Z,12.8
2018-04-10T06:25:03.352Z,12.8
2018-04-10T06:30:02.926Z,12.8
2018-04-10T06:35:02.610Z,13.3
2018-04-10T06:40:03.352Z,13.1
2018-04-10T06:45:02.941Z,13.1
2018-04-10T06:50:02.580Z,13.6
2018-04-10T06:55:03.170Z,13.5
2018-04-10T07:00:03.520Z,13.5
2018-04-10T07:05:03.260Z,13.5
2018-04-10T07:10:05.418Z,13.6
2018-04-10T07:15:02.703Z,13.6
2018-04-10T07:20:02.437Z,13.8
2018-04-10T07:25:03.062Z,14.1
2018-04-10T07:30:02.649Z,14.3
2018-04-10T07:35:03.390Z,14.3
2018-04-10T07:40:03.031Z,14.6
2018-04-10T07:45:02.638Z,14.6
2018-04-10T07:50:03.212Z,15.1
2018-04-10T07:55:02.818Z,15.5
2018-04-10T08:00:02.426Z,16.0
2018-04-10T08:05:03.125Z,16.3
2018-04-10T08:10:04.906Z,16.7
2018-04-10T08:15:02.468Z,16.7
2018-04-10T08:20:04.345Z,16.3
2018-04-10T08:25:02.979Z,16.2
2018-04-10T08:30:02.616Z,17.0
2018-04-10T08:35:06.422Z,17.7
2018-04-10T08:40:02.996Z,18.1
2018-04-10T08:45:02.800Z,17.2
2018-04-10T08:50:02.684Z,17.3
2018-04-10T08:55:03.311Z,17.7
2018-04-10T09:00:02.928Z,17.8
2018-04-10T09:05:02.529Z,17.7
2018-04-10T09:10:03.165Z,18.6
2018-04-10T09:15:02.734Z,18.1
2018-04-10T09:20:02.438Z,18.2
2018-04-10T09:25:03.054Z,18.7
2018-04-10T09:30:02.628Z,19.3
2018-04-10T09:35:03.285Z,19.3
2018-04-10T09:40:02.936Z,20.0
2018-04-10T09:45:02.504Z,20.3
2018-04-10T09:50:03.115Z,21.5
2018-04-10T09:55:02.675Z,21.7
2018-04-10T10:00:03.215Z,21.6
2018-04-10T10:05:02.818Z,20.3
2018-04-10T10:10:02.479Z,20.7
2018-04-10T10:15:03.117Z,20.7
2018-04-10T10:20:02.839Z,21.2
2018-04-10T10:25:02.393Z,21.8
2018-04-10T10:30:02.979Z,20.7
2018-04-10T10:35:02.685Z,21.2
2018-04-10T10:40:02.429Z,22.0
2018-04-10T10:45:03.026Z,20.6
2018-04-10T10:50:02.619Z,21.7
2018-04-10T10:55:03.247Z,21.3
2018-04-10T11:00:02.877Z,20.6
2018-04-10T11:05:02.696Z,20.7
2018-04-10T11:10:02.429Z,19.7
2018-04-10T11:15:02.998Z,20.3
2018-04-10T11:20:02.585Z,22.5
2018-04-10T11:25:03.482Z,22.3
2018-04-10T11:30:03.094Z,22.6
2018-04-10T11:35:02.742Z,23.1
2018-04-10T11:40:03.345Z,23.2
2018-04-10T11:45:02.901Z,23.3
2018-04-10T11:50:02.522Z,23.1
2018-04-10T11:55:03.237Z,24.8
2018-04-10T12:00:02.775Z,24.7
2018-04-10T12:05:02.381Z,25.8
2018-04-10T12:10:03.219Z,23.7
2018-04-10T12:15:02.718Z,24.7
2018-04-10T12:20:03.316Z,23.8
2018-04-10T12:25:02.844Z,22.5
2018-04-10T12:30:02.526Z,23.8
2018-04-10T12:35:03.211Z,22.0
2018-04-10T12:40:02.858Z,22.5
2018-04-10T12:45:02.818Z,24.2
2018-04-10T12:50:02.905Z,23.0
2018-04-10T12:55:02.505Z,23.8
2018-04-10T13:00:03.097Z,24.2
2018-04-10T13:05:02.798Z,23.7
2018-04-10T13:10:02.499Z,24.2
2018-04-10T13:15:03.062Z,25.2
2018-04-10T13:20:02.701Z,24.8
2018-04-10T13:25:03.337Z,26.0
2018-04-10T13:30:02.962Z,26.0
2018-04-10T13:35:02.638Z,26.1
2018-04-10T13:40:03.335Z,26.1
2018-04-10T13:45:02.996Z,26.6
2018-04-10T13:50:02.624Z,26.6
2018-04-10T13:55:03.260Z,27.7
2018-04-10T14:00:02.931Z,27.8
2018-04-10T14:05:02.596Z,27.8
2018-04-10T14:10:03.260Z,26.5
2018-04-10T14:15:02.880Z,25.2
2018-04-10T14:20:02.558Z,25.3
2018-04-10T14:25:03.226Z,26.5
2018-04-10T14:30:02.820Z,24.7
2018-04-10T14:35:02.447Z,24.7
2018-04-10T14:40:03.147Z,24.7
2018-04-10T14:45:03.030Z,24.5
2018-04-10T14:50:02.697Z,23.7
2018-04-10T14:55:03.256Z,23.0
2018-04-10T15:00:02.826Z,22.3
2018-04-10T15:05:02.483Z,22.7
2018-04-10T15:10:03.065Z,22.6
2018-04-10T15:15:02.578Z,22.0
2018-04-10T15:20:03.109Z,21.8
2018-04-10T15:25:02.687Z,21.6
2018-04-10T15:30:03.340Z,21.5
2018-04-10T15:35:03.032Z,23.2
2018-04-10T15:40:02.636Z,23.2
2018-04-10T15:45:03.272Z,22.6
2018-04-10T15:50:02.918Z,23.7
2018-04-10T15:55:02.567Z,23.7
2018-04-10T16:00:03.078Z,23.6
2018-04-10T16:05:02.773Z,23.7
2018-04-10T16:10:02.448Z,24.2
2018-04-10T16:15:03.029Z,23.3
2018-04-10T16:20:02.685Z,23.6
2018-04-10T16:25:03.283Z,23.2
2018-04-10T16:30:02.873Z,23.2
2018-04-10T16:35:02.594Z,22.7
2018-04-10T16:40:03.284Z,22.7
2018-04-10T16:45:02.969Z,21.3
2018-04-10T16:50:02.659Z,21.3
2018-04-10T16:55:03.177Z,21.2
2018-04-10T17:00:02.729Z,20.7
2018-04-10T17:05:03.382Z,20.7
2018-04-10T17:10:02.983Z,20.3
2018-04-10T17:15:02.468Z,20.3
2018-04-10T17:20:03.142Z,20.2
2018-04-10T17:25:02.673Z,20.2
2018-04-10T17:30:03.248Z,20.2
2018-04-10T17:35:02.798Z,20.1
2018-04-10T17:40:02.392Z,19.7
2018-04-10T17:45:02.921Z,19.7
2018-04-10T17:50:02.456Z,19.5
2018-04-10T17:55:03.104Z,19.3
2018-04-10T18:00:02.730Z,19.2
2018-04-10T18:05:03.316Z,19.2
2018-04-10T18:10:03.021Z,19.2
2018-04-10T18:15:02.651Z,19.1
2018-04-10T18:20:03.263Z,19.1
2018-04-10T18:25:02.834Z,18.8
2018-04-10T18:30:02.393Z,18.8
2018-04-10T18:35:03.109Z,18.7
2018-04-10T18:40:02.724Z,18.6
2018-04-10T18:45:03.337Z,18.5
2018-04-10T18:50:02.902Z,18.2
2018-04-10T18:55:02.476Z,18.2
2018-04-10T19:00:03.049Z,18.2
2018-04-10T19:05:02.709Z,18.1
2018-04-10T19:10:03.346Z,17.8
2018-04-10T19:15:02.916Z,17.8
2018-04-10T19:20:02.496Z,17.7
2018-04-10T19:25:02.982Z,17.7
2018-04-10T19:30:02.666Z,17.7
2018-04-10T19:35:03.259Z,17.5
2018-04-10T19:40:02.847Z,17.7
2018-04-10T19:45:02.434Z,17.5
2018-04-10T19:50:03.112Z,17.5
2018-04-10T19:55:02.665Z,17.3
2018-04-10T20:00:03.651Z,17.3
2018-04-10T20:05:03.234Z,17.5
2018-04-10T20:10:02.882Z,17.3
2018-04-10T20:15:02.461Z,17.3
2018-04-10T20:20:03.172Z,17.3
2018-04-10T20:25:02.700Z,17.1
2018-04-10T20:30:03.290Z,17.0
2018-04-10T20:35:02.921Z,16.7
2018-04-10T20:40:02.540Z,16.7
2018-04-10T20:45:03.279Z,17.0
2018-04-10T20:50:02.908Z,16.7
2018-04-10T20:55:02.463Z,15.8
2018-04-10T21:00:03.047Z,15.1
2018-04-10T21:05:02.808Z,14.8
2018-04-10T21:10:02.517Z,14.5
2018-04-10T21:15:03.207Z,14.3
2018-04-10T21:20:02.843Z,12.5
2018-04-10T21:25:02.349Z,12.3
2018-04-10T21:30:03.150Z,12.5
2018-04-10T21:35:02.697Z,12.1
2018-04-10T21:40:03.302Z,12.1
2018-04-10T21:45:02.803Z,12.1
2018-04-10T21:50:03.279Z,12.1
2018-04-10T21:55:02.898Z,12.1
2018-04-10T22:00:02.577Z,12.0
2018-04-10T22:05:03.062Z,12.0
2018-04-10T22:10:02.712Z,12.0
2018-04-10T22:15:03.335Z,11.8
2018-04-10T22:20:02.860Z,11.8
2018-04-10T22:25:02.398Z,11.6
2018-04-10T22:30:03.313Z,11.6
2018-04-10T22:35:02.901Z,11.6
2018-04-10T22:40:02.498Z,11.6
2018-04-10T22:45:03.060Z,11.6
2018-04-10T22:50:02.726Z,11.6
2018-04-10T22:55:03.300Z,11.6
2018-04-10T23:00:05.169Z,11.6
2018-04-10T23:05:02.871Z,11.6
2018-04-10T23:10:02.537Z,11.3
2018-04-10T23:15:03.076Z,11.6
2018-04-10T23:20:02.684Z,11.6
2018-04-10T23:25:03.280Z,11.8
2018-04-10T23:30:02.810Z,11.6
2018-04-10T23:35:02.447Z,11.6
2018-04-10T23:40:03.031Z,11.6
2018-04-10T23:45:02.642Z,11.3
2018-04-10T23:50:03.208Z,11.3
2018-04-10T23:55:02.995Z,11.3
